Hauptseite
METAR-TAF:

METAR-TAF

Flughäfen :

RAF Wittering

Wittering, England

Breite: 52-37N, Länge: 000-28W, Höhe: 84 m

Beobachtung

Neuester Wetterbericht von vor 36 Minuten, um 18:50 UTC
Wind 6 kt aus West/Südwest
Temperatur 17°C
Luftfeuchtigkeit 52%
Luftdruck 1017 hPa
Sichtweite 10 km oder mehr

METAR: EGXT 221850Z AUTO 24006KT 9999 BKN150/// 17/07 Q1017

Zeit: 20:26 (19:26 UTC)

Prognose

Neuester Wetterbericht von vor 5 Stunden und 48 Minuten, um 13:38 UTC
Gültige Prognose vom 22 um 15 UTC bis 22 um 18 UTC
Wind 8 kt aus West/Südwest
Sichtweite 10 km oder mehr
Leicht bewölkt in der Höhe von 4500 ft

TAF: EGXT 221338Z 2215/2218 25008KT 9999 FEW045

Wetterbeobachtungen und Prognosen von mehr als 4000 Flughäfen (METAR und TAF Bericht).

Die verfügbaren Stationen werden durch gelbe und rote Markierungen auf der Karte dargestellt.

Führen Sie die Maus auf sie, um den Namen der Station zu sehen.

Darauf klicken, um die Beobachtung von Wetterbeobachtungen und Prognosen zu sehen.

Um die Karte zu ändern : klicken Sie auf den grünen Tasten mit einem schwarzen Kreuz Zum Vergrößern, auf den grünen Button mit einem Gedankenstrich zu verkleinern, oder auf die grünen Pfeile für benachbarte Karten.


METAR-TAF: